TimeEDT,TemperatureF,Dew PointF,Humidity,Sea Level PressureIn,VisibilityMPH,Wind Direction,Wind SpeedMPH,Gust SpeedMPH,PrecipitationIn,Events,Conditions,WindDirDegrees,DateUTC
12:53 AM,25.0,19.9,81,30.45,10.0,Calm,Calm,-,N/A,,Clear,0,2012-10-13 04:53:00
1:53 AM,24.1,19.0,81,30.44,10.0,Calm,Calm,-,N/A,,Clear,0,2012-10-13 05:53:00
2:53 AM,21.9,18.0,85,30.45,10.0,Calm,Calm,-,N/A,,Clear,0,2012-10-13 06:53:00
3:53 AM,21.9,18.0,85,30.44,10.0,Calm,Calm,-,N/A,,Clear,0,2012-10-13 07:53:00
4:53 AM,21.0,17.1,85,30.46,10.0,Calm,Calm,-,N/A,,Clear,0,2012-10-13 08:53:00
5:53 AM,19.9,16.0,85,30.45,10.0,SE,4.6,-,N/A,,Clear,140,2012-10-13 09:53:00
6:53 AM,21.0,17.1,85,30.45,10.0,SE,4.6,-,N/A,,Clear,130,2012-10-13 10:53:00
7:53 AM,23.0,17.1,78,30.47,10.0,Calm,Calm,-,N/A,,Clear,0,2012-10-13 11:53:00
8:53 AM,30.9,23.0,72,30.44,10.0,ESE,6.9,-,N/A,,Clear,120,2012-10-13 12:53:00
9:53 AM,37.0,21.9,54,30.44,10.0,SE,9.2,-,N/A,,Clear,140,2012-10-13 13:53:00
11:53 AM,46.0,24.1,42,30.38,10.0,SE,10.4,-,N/A,,Clear,130,2012-10-13 15:53:00
12:53 PM,48.0,24.1,39,30.36,10.0,SE,8.1,-,N/A,,Clear,140,2012-10-13 16:53:00
1:53 PM,50.0,24.1,36,30.34,10.0,South,11.5,16.1,N/A,,Clear,190,2012-10-13 17:53:00
2:53 PM,50.0,25.0,38,30.31,10.0,South,8.1,-,N/A,,Mostly Cloudy,190,2012-10-13 18:53:00
4:53 PM,51.1,28.9,43,30.25,10.0,SSE,10.4,-,N/A,,Clear,150,2012-10-13 20:53:00
5:53 PM,51.1,28.9,43,30.22,10.0,SSE,9.2,-,N/A,,Clear,160,2012-10-13 21:53:00
6:53 PM,50.0,30.0,46,30.19,10.0,SSE,10.4,18.4,N/A,,Clear,150,2012-10-13 22:53:00
8:53 PM,50.0,32.0,50,30.15,10.0,South,11.5,21.9,N/A,,Mostly Cloudy,170,2012-10-14 00:53:00
10:53 PM,48.9,35.1,59,30.12,10.0,South,8.1,-,0.00,Rain,Light Rain,180,2012-10-14 02:53:00
11:53 PM,48.0,37.9,68,30.09,10.0,SSE,6.9,-,0.02,,Overcast,160,2012-10-14 03:53:00